sensor_id;sensor_type;location;lat;lon;timestamp;P1;durP1;ratioP1;P2;durP2;ratioP2
73456;SDS011;61691;53.072;6.582;2023-07-09T00:00:48;17.15;;;6.40;;
73456;SDS011;61691;53.072;6.582;2023-07-09T00:03:15;17.58;;;5.97;;
73456;SDS011;61691;53.072;6.582;2023-07-09T00:05:46;17.50;;;5.95;;
73456;SDS011;61691;53.072;6.582;2023-07-09T00:08:25;16.83;;;5.70;;
73456;SDS011;61691;53.072;6.582;2023-07-09T00:10:55;17.52;;;6.72;;
73456;SDS011;61691;53.072;6.582;2023-07-09T00:13:22;17.58;;;6.28;;
73456;SDS011;61691;53.072;6.582;2023-07-09T00:15:51;19.95;;;6.18;;
73456;SDS011;61691;53.072;6.582;2023-07-09T00:18:18;18.38;;;6.28;;
73456;SDS011;61691;53.072;6.582;2023-07-09T00:20:45;17.30;;;6.13;;
73456;SDS011;61691;53.072;6.582;2023-07-09T00:23:14;17.88;;;6.35;;
73456;SDS011;61691;53.072;6.582;2023-07-09T00:25:41;17.75;;;6.30;;
73456;SDS011;61691;53.072;6.582;2023-07-09T00:28:14;16.60;;;6.22;;
73456;SDS011;61691;53.072;6.582;2023-07-09T00:30:43;16.75;;;6.00;;
73456;SDS011;61691;53.072;6.582;2023-07-09T00:33:11;19.52;;;6.20;;
73456;SDS011;61691;53.072;6.582;2023-07-09T00:35:46;17.67;;;6.07;;
73456;SDS011;61691;53.072;6.582;2023-07-09T00:38:16;17.40;;;5.78;;
73456;SDS011;61691;53.072;6.582;2023-07-09T00:40:48;16.92;;;5.97;;
73456;SDS011;61691;53.072;6.582;2023-07-09T00:43:30;17.42;;;6.00;;
73456;SDS011;61691;53.072;6.582;2023-07-09T00:46:13;17.05;;;5.60;;
73456;SDS011;61691;53.072;6.582;2023-07-09T00:49:07;20.35;;;6.82;;
73456;SDS011;61691;53.072;6.582;2023-07-09T00:51:37;17.65;;;6.32;;
73456;SDS011;61691;53.072;6.582;2023-07-09T00:54:11;17.77;;;6.00;;
73456;SDS011;61691;53.072;6.582;2023-07-09T00:56:43;18.50;;;6.07;;
73456;SDS011;61691;53.072;6.582;2023-07-09T00:59:13;18.60;;;7.18;;
73456;SDS011;61691;53.072;6.582;2023-07-09T01:01:44;17.05;;;6.10;;
73456;SDS011;61691;53.072;6.582;2023-07-09T01:04:13;17.48;;;6.18;;
73456;SDS011;61691;53.072;6.582;2023-07-09T01:06:43;19.52;;;6.40;;
73456;SDS011;61691;53.072;6.582;2023-07-09T01:09:13;18.50;;;6.60;;
73456;SDS011;61691;53.072;6.582;2023-07-09T01:11:40;18.48;;;6.53;;
73456;SDS011;61691;53.072;6.582;2023-07-09T01:14:07;18.65;;;6.43;;
73456;SDS011;61691;53.072;6.582;2023-07-09T01:16:39;17.02;;;6.05;;
73456;SDS011;61691;53.072;6.582;2023-07-09T01:19:09;17.20;;;5.88;;
73456;SDS011;61691;53.072;6.582;2023-07-09T01:21:36;17.58;;;6.43;;
73456;SDS011;61691;53.072;6.582;2023-07-09T01:24:12;17.50;;;6.20;;
73456;SDS011;61691;53.072;6.582;2023-07-09T01:26:53;18.98;;;6.50;;
73456;SDS011;61691;53.072;6.582;2023-07-09T01:29:20;16.83;;;6.07;;
73456;SDS011;61691;53.072;6.582;2023-07-09T01:31:47;18.45;;;6.38;;
73456;SDS011;61691;53.072;6.582;2023-07-09T01:34:14;16.90;;;5.97;;
73456;SDS011;61691;53.072;6.582;2023-07-09T01:36:41;16.73;;;6.05;;
73456;SDS011;61691;53.072;6.582;2023-07-09T01:39:11;16.67;;;6.28;;
73456;SDS011;61691;53.072;6.582;2023-07-09T01:41:37;17.63;;;5.88;;
73456;SDS011;61691;53.072;6.582;2023-07-09T01:44:05;16.90;;;6.00;;
73456;SDS011;61691;53.072;6.582;2023-07-09T01:46:33;16.45;;;6.00;;
73456;SDS011;61691;53.072;6.582;2023-07-09T01:49:00;18.83;;;6.35;;
73456;SDS011;61691;53.072;6.582;2023-07-09T01:51:27;17.92;;;6.30;;
73456;SDS011;61691;53.072;6.582;2023-07-09T01:53:55;16.83;;;6.20;;
73456;SDS011;61691;53.072;6.582;2023-07-09T01:56:21;17.63;;;6.40;;
73456;SDS011;61691;53.072;6.582;2023-07-09T01:58:50;18.98;;;6.72;;
73456;SDS011;61691;53.072;6.582;2023-07-09T02:01:17;18.20;;;6.18;;
73456;SDS011;61691;53.072;6.582;2023-07-09T02:03:46;18.23;;;6.68;;
73456;SDS011;61691;53.072;6.582;2023-07-09T02:06:12;17.05;;;6.28;;
73456;SDS011;61691;53.072;6.582;2023-07-09T02:08:39;16.75;;;7.10;;
73456;SDS011;61691;53.072;6.582;2023-07-09T02:11:06;20.05;;;6.82;;
73456;SDS011;61691;53.072;6.582;2023-07-09T02:13:33;16.80;;;6.40;;
73456;SDS011;61691;53.072;6.582;2023-07-09T02:16:00;17.73;;;6.50;;
73456;SDS011;61691;53.072;6.582;2023-07-09T02:18:28;18.05;;;6.45;;
73456;SDS011;61691;53.072;6.582;2023-07-09T02:20:55;17.45;;;6.30;;
73456;SDS011;61691;53.072;6.582;2023-07-09T02:23:26;18.90;;;6.25;;
73456;SDS011;61691;53.072;6.582;2023-07-09T02:25:54;17.25;;;6.38;;
73456;SDS011;61691;53.072;6.582;2023-07-09T02:28:20;18.10;;;6.50;;
73456;SDS011;61691;53.072;6.582;2023-07-09T02:30:48;18.58;;;7.03;;
73456;SDS011;61691;53.072;6.582;2023-07-09T02:33:14;17.75;;;6.40;;
73456;SDS011;61691;53.072;6.582;2023-07-09T02:35:41;20.20;;;6.45;;
73456;SDS011;61691;53.072;6.582;2023-07-09T02:38:08;19.02;;;6.20;;
73456;SDS011;61691;53.072;6.582;2023-07-09T02:40:34;17.55;;;6.15;;
73456;SDS011;61691;53.072;6.582;2023-07-09T02:43:02;18.92;;;7.32;;
73456;SDS011;61691;53.072;6.582;2023-07-09T02:45:28;18.40;;;6.57;;
73456;SDS011;61691;53.072;6.582;2023-07-09T02:47:55;17.55;;;6.30;;
73456;SDS011;61691;53.072;6.582;2023-07-09T02:50:22;17.15;;;6.13;;
73456;SDS011;61691;53.072;6.582;2023-07-09T02:52:48;17.50;;;5.93;;
73456;SDS011;61691;53.072;6.582;2023-07-09T02:55:15;18.27;;;6.22;;
73456;SDS011;61691;53.072;6.582;2023-07-09T02:57:42;17.58;;;6.85;;
73456;SDS011;61691;53.072;6.582;2023-07-09T03:00:09;17.40;;;6.50;;
73456;SDS011;61691;53.072;6.582;2023-07-09T03:02:36;16.83;;;6.35;;
73456;SDS011;61691;53.072;6.582;2023-07-09T03:05:03;18.55;;;7.07;;
73456;SDS011;61691;53.072;6.582;2023-07-09T03:07:30;18.35;;;6.50;;
73456;SDS011;61691;53.072;6.582;2023-07-09T03:09:56;17.52;;;6.65;;
73456;SDS011;61691;53.072;6.582;2023-07-09T03:12:23;19.52;;;6.55;;
73456;SDS011;61691;53.072;6.582;2023-07-09T03:14:50;17.80;;;6.40;;
73456;SDS011;61691;53.072;6.582;2023-07-09T03:17:16;18.08;;;6.10;;
73456;SDS011;61691;53.072;6.582;2023-07-09T03:19:43;17.23;;;6.22;;
73456;SDS011;61691;53.072;6.582;2023-07-09T03:22:10;18.92;;;7.15;;
73456;SDS011;61691;53.072;6.582;2023-07-09T03:24:37;19.50;;;6.43;;
73456;SDS011;61691;53.072;6.582;2023-07-09T03:27:03;18.23;;;6.90;;
73456;SDS011;61691;53.072;6.582;2023-07-09T03:29:30;18.02;;;6.55;;
73456;SDS011;61691;53.072;6.582;2023-07-09T03:31:57;16.70;;;5.88;;
73456;SDS011;61691;53.072;6.582;2023-07-09T03:34:24;16.35;;;6.07;;
73456;SDS011;61691;53.072;6.582;2023-07-09T03:36:51;19.52;;;6.70;;
73456;SDS011;61691;53.072;6.582;2023-07-09T03:39:18;16.75;;;6.35;;
73456;SDS011;61691;53.072;6.582;2023-07-09T03:41:44;16.95;;;6.07;;
73456;SDS011;61691;53.072;6.582;2023-07-09T03:44:11;16.75;;;6.32;;
73456;SDS011;61691;53.072;6.582;2023-07-09T03:46:38;17.27;;;6.82;;
73456;SDS011;61691;53.072;6.582;2023-07-09T03:49:04;16.70;;;6.20;;
73456;SDS011;61691;53.072;6.582;2023-07-09T03:51:31;17.38;;;6.72;;
73456;SDS011;61691;53.072;6.582;2023-07-09T03:53:58;16.42;;;6.22;;
73456;SDS011;61691;53.072;6.582;2023-07-09T03:56:24;17.65;;;5.70;;
73456;SDS011;61691;53.072;6.582;2023-07-09T03:58:51;17.30;;;5.50;;
73456;SDS011;61691;53.072;6.582;2023-07-09T04:01:18;18.90;;;6.03;;
73456;SDS011;61691;53.072;6.582;2023-07-09T04:03:45;16.20;;;5.60;;
73456;SDS011;61691;53.072;6.582;2023-07-09T04:06:12;17.58;;;5.82;;
73456;SDS011;61691;53.072;6.582;2023-07-09T04:08:38;16.58;;;5.95;;
73456;SDS011;61691;53.072;6.582;2023-07-09T04:11:05;19.38;;;6.10;;
73456;SDS011;61691;53.072;6.582;2023-07-09T04:13:32;17.63;;;5.93;;
73456;SDS011;61691;53.072;6.582;2023-07-09T04:15:59;17.30;;;6.00;;
73456;SDS011;61691;53.072;6.582;2023-07-09T04:18:26;15.80;;;5.53;;
73456;SDS011;61691;53.072;6.582;2023-07-09T04:20:53;17.90;;;6.30;;
73456;SDS011;61691;53.072;6.582;2023-07-09T04:23:20;17.48;;;6.55;;
73456;SDS011;61691;53.072;6.582;2023-07-09T04:25:46;17.80;;;6.05;;
73456;SDS011;61691;53.072;6.582;2023-07-09T04:28:14;17.83;;;5.93;;
73456;SDS011;61691;53.072;6.582;2023-07-09T04:30:48;17.40;;;6.40;;
73456;SDS011;61691;53.072;6.582;2023-07-09T04:33:17;19.33;;;6.13;;
73456;SDS011;61691;53.072;6.582;2023-07-09T04:35:46;18.23;;;6.00;;
73456;SDS011;61691;53.072;6.582;2023-07-09T04:38:14;17.05;;;5.97;;
73456;SDS011;61691;53.072;6.582;2023-07-09T04:40:41;17.00;;;6.07;;
73456;SDS011;61691;53.072;6.582;2023-07-09T04:43:08;18.05;;;6.05;;
73456;SDS011;61691;53.072;6.582;2023-07-09T04:45:35;16.85;;;6.32;;
73456;SDS011;61691;53.072;6.582;2023-07-09T04:48:02;16.42;;;5.95;;
73456;SDS011;61691;53.072;6.582;2023-07-09T04:50:29;16.60;;;5.88;;
73456;SDS011;61691;53.072;6.582;2023-07-09T04:52:55;18.38;;;6.07;;
73456;SDS011;61691;53.072;6.582;2023-07-09T04:55:22;16.52;;;5.88;;
73456;SDS011;61691;53.072;6.582;2023-07-09T04:57:49;17.95;;;6.00;;
73456;SDS011;61691;53.072;6.582;2023-07-09T05:00:16;16.70;;;5.72;;
73456;SDS011;61691;53.072;6.582;2023-07-09T05:02:45;16.77;;;6.07;;
73456;SDS011;61691;53.072;6.582;2023-07-09T05:05:12;20.30;;;6.40;;
73456;SDS011;61691;53.072;6.582;2023-07-09T05:07:38;18.90;;;5.40;;
73456;SDS011;61691;53.072;6.582;2023-07-09T05:10:06;18.35;;;6.00;;
73456;SDS011;61691;53.072;6.582;2023-07-09T05:12:33;18.25;;;5.57;;
73456;SDS011;61691;53.072;6.582;2023-07-09T05:15:00;17.63;;;6.25;;
73456;SDS011;61691;53.072;6.582;2023-07-09T05:17:27;17.45;;;5.88;;
73456;SDS011;61691;53.072;6.582;2023-07-09T05:19:53;17.30;;;6.22;;
73456;SDS011;61691;53.072;6.582;2023-07-09T05:22:20;16.02;;;5.35;;
73456;SDS011;61691;53.072;6.582;2023-07-09T05:24:47;18.92;;;6.50;;
73456;SDS011;61691;53.072;6.582;2023-07-09T05:27:13;19.83;;;5.82;;
73456;SDS011;61691;53.072;6.582;2023-07-09T05:29:40;16.60;;;5.80;;
73456;SDS011;61691;53.072;6.582;2023-07-09T05:32:07;17.08;;;6.00;;
73456;SDS011;61691;53.072;6.582;2023-07-09T05:34:34;19.42;;;6.38;;
73456;SDS011;61691;53.072;6.582;2023-07-09T05:37:00;17.15;;;5.80;;
73456;SDS011;61691;53.072;6.582;2023-07-09T05:39:27;17.45;;;5.97;;
73456;SDS011;61691;53.072;6.582;2023-07-09T05:41:54;20.15;;;6.30;;
73456;SDS011;61691;53.072;6.582;2023-07-09T05:44:20;16.92;;;6.28;;
73456;SDS011;61691;53.072;6.582;2023-07-09T05:46:47;18.80;;;6.57;;
73456;SDS011;61691;53.072;6.582;2023-07-09T05:49:14;17.10;;;5.70;;
73456;SDS011;61691;53.072;6.582;2023-07-09T05:51:40;17.08;;;5.95;;
73456;SDS011;61691;53.072;6.582;2023-07-09T05:54:08;16.13;;;6.03;;
73456;SDS011;61691;53.072;6.582;2023-07-09T05:56:35;19.15;;;6.75;;
73456;SDS011;61691;53.072;6.582;2023-07-09T05:59:02;18.27;;;6.13;;
73456;SDS011;61691;53.072;6.582;2023-07-09T06:01:29;16.55;;;6.20;;
73456;SDS011;61691;53.072;6.582;2023-07-09T06:03:56;17.48;;;6.30;;
73456;SDS011;61691;53.072;6.582;2023-07-09T06:06:23;17.38;;;6.13;;
73456;SDS011;61691;53.072;6.582;2023-07-09T06:08:50;18.80;;;6.60;;
73456;SDS011;61691;53.072;6.582;2023-07-09T06:11:17;17.75;;;6.05;;
73456;SDS011;61691;53.072;6.582;2023-07-09T06:13:46;18.83;;;5.97;;
73456;SDS011;61691;53.072;6.582;2023-07-09T06:16:15;17.90;;;6.30;;
73456;SDS011;61691;53.072;6.582;2023-07-09T06:18:42;18.23;;;6.57;;
73456;SDS011;61691;53.072;6.582;2023-07-09T06:21:09;20.08;;;6.80;;
73456;SDS011;61691;53.072;6.582;2023-07-09T06:23:38;18.08;;;6.57;;
73456;SDS011;61691;53.072;6.582;2023-07-09T06:26:04;17.90;;;6.50;;
73456;SDS011;61691;53.072;6.582;2023-07-09T06:28:31;18.25;;;6.07;;
73456;SDS011;61691;53.072;6.582;2023-07-09T06:30:59;17.77;;;6.38;;
73456;SDS011;61691;53.072;6.582;2023-07-09T06:33:26;17.17;;;6.20;;
73456;SDS011;61691;53.072;6.582;2023-07-09T06:35:54;16.50;;;6.15;;
73456;SDS011;61691;53.072;6.582;2023-07-09T06:38:26;17.23;;;6.18;;
73456;SDS011;61691;53.072;6.582;2023-07-09T06:40:54;18.85;;;5.97;;
73456;SDS011;61691;53.072;6.582;2023-07-09T06:43:21;18.77;;;6.45;;
73456;SDS011;61691;53.072;6.582;2023-07-09T06:48:18;16.80;;;6.35;;
73456;SDS011;61691;53.072;6.582;2023-07-09T06:50:46;18.85;;;5.95;;
73456;SDS011;61691;53.072;6.582;2023-07-09T06:53:14;19.65;;;6.57;;
73456;SDS011;61691;53.072;6.582;2023-07-09T06:55:42;16.38;;;5.90;;
73456;SDS011;61691;53.072;6.582;2023-07-09T06:58:08;17.65;;;5.97;;
73456;SDS011;61691;53.072;6.582;2023-07-09T07:00:35;17.08;;;6.35;;
73456;SDS011;61691;53.072;6.582;2023-07-09T07:03:03;17.52;;;5.90;;
73456;SDS011;61691;53.072;6.582;2023-07-09T07:05:32;18.13;;;6.32;;
73456;SDS011;61691;53.072;6.582;2023-07-09T07:07:59;16.67;;;5.70;;
73456;SDS011;61691;53.072;6.582;2023-07-09T07:10:26;17.27;;;6.78;;
73456;SDS011;61691;53.072;6.582;2023-07-09T07:12:53;15.23;;;5.63;;
73456;SDS011;61691;53.072;6.582;2023-07-09T07:15:20;16.58;;;5.85;;
73456;SDS011;61691;53.072;6.582;2023-07-09T07:17:48;18.50;;;5.80;;
73456;SDS011;61691;53.072;6.582;2023-07-09T07:20:15;16.75;;;5.75;;
73456;SDS011;61691;53.072;6.582;2023-07-09T07:22:43;19.75;;;6.32;;
73456;SDS011;61691;53.072;6.582;2023-07-09T07:25:10;19.75;;;6.13;;
73456;SDS011;61691;53.072;6.582;2023-07-09T07:27:37;16.25;;;5.80;;
73456;SDS011;61691;53.072;6.582;2023-07-09T07:30:04;18.88;;;6.30;;
73456;SDS011;61691;53.072;6.582;2023-07-09T07:32:36;18.23;;;6.05;;
73456;SDS011;61691;53.072;6.582;2023-07-09T07:35:04;17.92;;;5.88;;
73456;SDS011;61691;53.072;6.582;2023-07-09T07:37:31;16.77;;;5.57;;
73456;SDS011;61691;53.072;6.582;2023-07-09T07:39:58;17.33;;;5.50;;
73456;SDS011;61691;53.072;6.582;2023-07-09T07:42:25;15.20;;;5.38;;
73456;SDS011;61691;53.072;6.582;2023-07-09T07:44:51;16.30;;;5.40;;
73456;SDS011;61691;53.072;6.582;2023-07-09T07:47:18;20.30;;;5.70;;
73456;SDS011;61691;53.072;6.582;2023-07-09T07:49:45;18.52;;;5.75;;
73456;SDS011;61691;53.072;6.582;2023-07-09T07:52:12;18.00;;;5.85;;
73456;SDS011;61691;53.072;6.582;2023-07-09T07:54:38;17.45;;;5.95;;
73456;SDS011;61691;53.072;6.582;2023-07-09T07:57:05;18.83;;;6.10;;
73456;SDS011;61691;53.072;6.582;2023-07-09T07:59:35;16.10;;;5.50;;
73456;SDS011;61691;53.072;6.582;2023-07-09T08:02:03;16.98;;;6.40;;
73456;SDS011;61691;53.072;6.582;2023-07-09T08:04:31;16.90;;;5.53;;
73456;SDS011;61691;53.072;6.582;2023-07-09T08:06:58;19.08;;;5.65;;
73456;SDS011;61691;53.072;6.582;2023-07-09T08:09:25;18.95;;;5.53;;
73456;SDS011;61691;53.072;6.582;2023-07-09T08:11:52;19.55;;;5.53;;
73456;SDS011;61691;53.072;6.582;2023-07-09T08:14:19;17.13;;;5.68;;
73456;SDS011;61691;53.072;6.582;2023-07-09T08:16:46;16.35;;;5.30;;
73456;SDS011;61691;53.072;6.582;2023-07-09T08:19:17;16.33;;;5.70;;
73456;SDS011;61691;53.072;6.582;2023-07-09T08:21:45;18.50;;;5.13;;
73456;SDS011;61691;53.072;6.582;2023-07-09T08:24:12;18.85;;;5.80;;
73456;SDS011;61691;53.072;6.582;2023-07-09T08:26:40;21.00;;;5.60;;
73456;SDS011;61691;53.072;6.582;2023-07-09T08:29:07;17.50;;;5.78;;
73456;SDS011;61691;53.072;6.582;2023-07-09T08:31:34;15.35;;;5.40;;
73456;SDS011;61691;53.072;6.582;2023-07-09T08:34:00;19.42;;;5.32;;
73456;SDS011;61691;53.072;6.582;2023-07-09T08:36:27;16.70;;;5.43;;
73456;SDS011;61691;53.072;6.582;2023-07-09T08:38:56;18.33;;;5.95;;
73456;SDS011;61691;53.072;6.582;2023-07-09T08:47:13;17.50;;;5.78;;
73456;SDS011;61691;53.072;6.582;2023-07-09T08:49:48;28.33;;;7.05;;
73456;SDS011;61691;53.072;6.582;2023-07-09T08:55:25;24.42;;;6.93;;
73456;SDS011;61691;53.072;6.582;2023-07-09T08:57:57;20.15;;;6.18;;
73456;SDS011;61691;53.072;6.582;2023-07-09T09:06:30;20.88;;;6.82;;
73456;SDS011;61691;53.072;6.582;2023-07-09T09:14:07;19.95;;;6.20;;
73456;SDS011;61691;53.072;6.582;2023-07-09T09:16:58;17.13;;;5.88;;
73456;SDS011;61691;53.072;6.582;2023-07-09T09:19:30;16.63;;;5.75;;
73456;SDS011;61691;53.072;6.582;2023-07-09T09:22:05;18.42;;;5.70;;
73456;SDS011;61691;53.072;6.582;2023-07-09T09:24:36;17.55;;;6.20;;
73456;SDS011;61691;53.072;6.582;2023-07-09T09:27:07;18.25;;;5.72;;
73456;SDS011;61691;53.072;6.582;2023-07-09T09:29:34;18.55;;;7.00;;
73456;SDS011;61691;53.072;6.582;2023-07-09T09:32:02;19.17;;;5.70;;
73456;SDS011;61691;53.072;6.582;2023-07-09T09:34:51;18.70;;;6.35;;
73456;SDS011;61691;53.072;6.582;2023-07-09T09:39:50;19.10;;;6.50;;
73456;SDS011;61691;53.072;6.582;2023-07-09T09:42:37;18.33;;;6.20;;
73456;SDS011;61691;53.072;6.582;2023-07-09T09:45:08;20.63;;;6.28;;
73456;SDS011;61691;53.072;6.582;2023-07-09T09:47:40;19.45;;;6.32;;
73456;SDS011;61691;53.072;6.582;2023-07-09T09:50:08;17.23;;;5.90;;
73456;SDS011;61691;53.072;6.582;2023-07-09T09:52:39;18.10;;;6.22;;
73456;SDS011;61691;53.072;6.582;2023-07-09T09:55:17;18.73;;;7.07;;
73456;SDS011;61691;53.072;6.582;2023-07-09T10:00:14;18.77;;;7.07;;
73456;SDS011;61691;53.072;6.582;2023-07-09T10:02:43;22.08;;;6.65;;
73456;SDS011;61691;53.072;6.582;2023-07-09T10:05:13;19.65;;;6.50;;
73456;SDS011;61691;53.072;6.582;2023-07-09T10:10:33;19.25;;;5.57;;
73456;SDS011;61691;53.072;6.582;2023-07-09T10:13:13;18.88;;;6.03;;
73456;SDS011;61691;53.072;6.582;2023-07-09T10:16:06;21.67;;;6.85;;
73456;SDS011;61691;53.072;6.582;2023-07-09T10:21:30;19.73;;;7.45;;
73456;SDS011;61691;53.072;6.582;2023-07-09T10:24:07;19.05;;;6.65;;
73456;SDS011;61691;53.072;6.582;2023-07-09T10:32:01;17.83;;;6.53;;
73456;SDS011;61691;53.072;6.582;2023-07-09T10:39:58;19.27;;;6.55;;
73456;SDS011;61691;53.072;6.582;2023-07-09T10:42:29;19.83;;;7.65;;
73456;SDS011;61691;53.072;6.582;2023-07-09T10:45:02;19.10;;;7.00;;
73456;SDS011;61691;53.072;6.582;2023-07-09T10:47:49;18.90;;;7.18;;
73456;SDS011;61691;53.072;6.582;2023-07-09T10:50:27;19.55;;;6.50;;
73456;SDS011;61691;53.072;6.582;2023-07-09T10:53:02;22.00;;;7.40;;
73456;SDS011;61691;53.072;6.582;2023-07-09T10:58:31;18.55;;;7.45;;
73456;SDS011;61691;53.072;6.582;2023-07-09T11:01:03;19.98;;;7.82;;
73456;SDS011;61691;53.072;6.582;2023-07-09T11:03:54;19.08;;;6.45;;
73456;SDS011;61691;53.072;6.582;2023-07-09T11:06:32;17.58;;;6.68;;
73456;SDS011;61691;53.072;6.582;2023-07-09T11:09:14;18.92;;;6.53;;
73456;SDS011;61691;53.072;6.582;2023-07-09T11:11:52;17.58;;;5.90;;
73456;SDS011;61691;53.072;6.582;2023-07-09T11:14:34;17.98;;;6.13;;
73456;SDS011;61691;53.072;6.582;2023-07-09T11:17:15;18.75;;;6.70;;
73456;SDS011;61691;53.072;6.582;2023-07-09T11:19:45;18.23;;;6.72;;
73456;SDS011;61691;53.072;6.582;2023-07-09T11:22:23;19.93;;;7.07;;
73456;SDS011;61691;53.072;6.582;2023-07-09T11:27:51;18.27;;;7.32;;
73456;SDS011;61691;53.072;6.582;2023-07-09T11:30:23;19.10;;;6.63;;
73456;SDS011;61691;53.072;6.582;2023-07-09T11:32:59;18.92;;;6.50;;
73456;SDS011;61691;53.072;6.582;2023-07-09T11:35:50;20.38;;;7.18;;
73456;SDS011;61691;53.072;6.582;2023-07-09T11:38:20;19.98;;;7.70;;
73456;SDS011;61691;53.072;6.582;2023-07-09T11:40:50;18.33;;;6.65;;
73456;SDS011;61691;53.072;6.582;2023-07-09T11:43:35;18.98;;;6.93;;
73456;SDS011;61691;53.072;6.582;2023-07-09T11:46:14;20.63;;;7.43;;
73456;SDS011;61691;53.072;6.582;2023-07-09T11:48:45;16.92;;;6.15;;
73456;SDS011;61691;53.072;6.582;2023-07-09T11:51:16;21.73;;;6.20;;
73456;SDS011;61691;53.072;6.582;2023-07-09T11:53:48;18.75;;;6.15;;
73456;SDS011;61691;53.072;6.582;2023-07-09T11:56:21;19.52;;;6.72;;
73456;SDS011;61691;53.072;6.582;2023-07-09T11:58:51;17.35;;;5.28;;
73456;SDS011;61691;53.072;6.582;2023-07-09T12:01:20;18.02;;;6.07;;
73456;SDS011;61691;53.072;6.582;2023-07-09T12:03:49;18.67;;;5.97;;
73456;SDS011;61691;53.072;6.582;2023-07-09T12:06:18;18.02;;;5.82;;
73456;SDS011;61691;53.072;6.582;2023-07-09T12:08:49;18.40;;;5.13;;
73456;SDS011;61691;53.072;6.582;2023-07-09T12:11:25;16.80;;;5.90;;
73456;SDS011;61691;53.072;6.582;2023-07-09T12:14:04;18.38;;;6.25;;
73456;SDS011;61691;53.072;6.582;2023-07-09T12:16:38;19.95;;;6.40;;
73456;SDS011;61691;53.072;6.582;2023-07-09T12:21:34;18.27;;;5.35;;
73456;SDS011;61691;53.072;6.582;2023-07-09T12:24:13;18.45;;;5.60;;
73456;SDS011;61691;53.072;6.582;2023-07-09T12:26:47;17.52;;;5.60;;
73456;SDS011;61691;53.072;6.582;2023-07-09T12:29:15;17.58;;;5.25;;
73456;SDS011;61691;53.072;6.582;2023-07-09T12:31:42;16.85;;;5.00;;
73456;SDS011;61691;53.072;6.582;2023-07-09T12:34:10;17.48;;;5.00;;
73456;SDS011;61691;53.072;6.582;2023-07-09T12:36:41;18.33;;;5.82;;
73456;SDS011;61691;53.072;6.582;2023-07-09T12:39:10;18.30;;;5.35;;
73456;SDS011;61691;53.072;6.582;2023-07-09T12:41:42;18.75;;;5.78;;
73456;SDS011;61691;53.072;6.582;2023-07-09T12:44:17;15.75;;;4.78;;
73456;SDS011;61691;53.072;6.582;2023-07-09T12:46:46;18.88;;;5.50;;
73456;SDS011;61691;53.072;6.582;2023-07-09T12:49:20;18.27;;;5.35;;
73456;SDS011;61691;53.072;6.582;2023-07-09T12:51:50;17.77;;;4.78;;
73456;SDS011;61691;53.072;6.582;2023-07-09T12:54:18;16.73;;;4.60;;
73456;SDS011;61691;53.072;6.582;2023-07-09T12:56:51;18.25;;;5.57;;
73456;SDS011;61691;53.072;6.582;2023-07-09T12:59:26;17.63;;;5.43;;
73456;SDS011;61691;53.072;6.582;2023-07-09T13:02:02;18.35;;;5.35;;
73456;SDS011;61691;53.072;6.582;2023-07-09T13:04:38;18.23;;;5.22;;
73456;SDS011;61691;53.072;6.582;2023-07-09T13:07:23;20.98;;;5.28;;
73456;SDS011;61691;53.072;6.582;2023-07-09T13:09:51;20.05;;;6.80;;
73456;SDS011;61691;53.072;6.582;2023-07-09T13:12:20;18.67;;;5.90;;
73456;SDS011;61691;53.072;6.582;2023-07-09T13:14:53;18.17;;;6.10;;
73456;SDS011;61691;53.072;6.582;2023-07-09T13:17:28;17.95;;;6.07;;
73456;SDS011;61691;53.072;6.582;2023-07-09T13:19:56;17.55;;;5.68;;
73456;SDS011;61691;53.072;6.582;2023-07-09T13:22:25;17.20;;;6.10;;
73456;SDS011;61691;53.072;6.582;2023-07-09T13:24:52;16.77;;;5.95;;
73456;SDS011;61691;53.072;6.582;2023-07-09T13:27:18;16.50;;;6.15;;
73456;SDS011;61691;53.072;6.582;2023-07-09T13:29:45;19.20;;;6.00;;
73456;SDS011;61691;53.072;6.582;2023-07-09T13:32:14;19.30;;;6.65;;
73456;SDS011;61691;53.072;6.582;2023-07-09T13:34:42;17.23;;;5.78;;
73456;SDS011;61691;53.072;6.582;2023-07-09T13:37:13;18.08;;;6.28;;
73456;SDS011;61691;53.072;6.582;2023-07-09T13:39:42;18.88;;;6.18;;
73456;SDS011;61691;53.072;6.582;2023-07-09T13:42:15;16.33;;;5.70;;
73456;SDS011;61691;53.072;6.582;2023-07-09T13:44:44;18.38;;;5.82;;
73456;SDS011;61691;53.072;6.582;2023-07-09T13:47:13;19.75;;;5.85;;
73456;SDS011;61691;53.072;6.582;2023-07-09T13:49:44;18.33;;;5.93;;
73456;SDS011;61691;53.072;6.582;2023-07-09T13:52:17;16.85;;;6.30;;
73456;SDS011;61691;53.072;6.582;2023-07-09T13:54:46;16.15;;;5.28;;
73456;SDS011;61691;53.072;6.582;2023-07-09T13:57:15;16.85;;;5.07;;
73456;SDS011;61691;53.072;6.582;2023-07-09T13:59:44;17.25;;;5.85;;
73456;SDS011;61691;53.072;6.582;2023-07-09T14:04:59;16.45;;;5.43;;
73456;SDS011;61691;53.072;6.582;2023-07-09T14:07:31;17.42;;;5.35;;
73456;SDS011;61691;53.072;6.582;2023-07-09T14:10:00;16.88;;;5.78;;
73456;SDS011;61691;53.072;6.582;2023-07-09T14:12:28;18.70;;;5.90;;
73456;SDS011;61691;53.072;6.582;2023-07-09T14:14:57;17.77;;;5.50;;
73456;SDS011;61691;53.072;6.582;2023-07-09T14:17:28;17.27;;;5.55;;
73456;SDS011;61691;53.072;6.582;2023-07-09T14:19:55;18.10;;;6.07;;
73456;SDS011;61691;53.072;6.582;2023-07-09T14:27:30;19.17;;;5.10;;
73456;SDS011;61691;53.072;6.582;2023-07-09T14:29:57;18.85;;;5.53;;
73456;SDS011;61691;53.072;6.582;2023-07-09T14:32:32;16.13;;;4.57;;
73456;SDS011;61691;53.072;6.582;2023-07-09T14:35:00;17.05;;;5.50;;
73456;SDS011;61691;53.072;6.582;2023-07-09T14:37:29;16.23;;;5.13;;
73456;SDS011;61691;53.072;6.582;2023-07-09T14:39:56;17.02;;;5.40;;
73456;SDS011;61691;53.072;6.582;2023-07-09T14:42:23;17.98;;;5.18;;
73456;SDS011;61691;53.072;6.582;2023-07-09T14:44:50;16.48;;;4.70;;
73456;SDS011;61691;53.072;6.582;2023-07-09T14:47:18;20.55;;;5.70;;
73456;SDS011;61691;53.072;6.582;2023-07-09T14:49:47;17.77;;;5.43;;
73456;SDS011;61691;53.072;6.582;2023-07-09T14:52:15;16.30;;;5.15;;
73456;SDS011;61691;53.072;6.582;2023-07-09T14:54:44;15.82;;;4.70;;
73456;SDS011;61691;53.072;6.582;2023-07-09T14:57:18;16.10;;;5.40;;
73456;SDS011;61691;53.072;6.582;2023-07-09T14:59:49;19.17;;;4.95;;
73456;SDS011;61691;53.072;6.582;2023-07-09T15:02:20;16.95;;;5.63;;
73456;SDS011;61691;53.072;6.582;2023-07-09T15:04:49;17.02;;;5.47;;
73456;SDS011;61691;53.072;6.582;2023-07-09T15:07:16;18.42;;;5.28;;
73456;SDS011;61691;53.072;6.582;2023-07-09T15:09:43;18.48;;;5.90;;
73456;SDS011;61691;53.072;6.582;2023-07-09T15:12:20;24.25;;;5.97;;
73456;SDS011;61691;53.072;6.582;2023-07-09T15:14:51;17.02;;;5.53;;
73456;SDS011;61691;53.072;6.582;2023-07-09T15:17:19;18.90;;;6.10;;
73456;SDS011;61691;53.072;6.582;2023-07-09T15:19:46;18.92;;;6.45;;
73456;SDS011;61691;53.072;6.582;2023-07-09T15:22:16;16.67;;;5.90;;
73456;SDS011;61691;53.072;6.582;2023-07-09T15:24:50;21.33;;;5.25;;
73456;SDS011;61691;53.072;6.582;2023-07-09T15:27:17;17.63;;;5.43;;
73456;SDS011;61691;53.072;6.582;2023-07-09T15:29:44;22.17;;;5.82;;
73456;SDS011;61691;53.072;6.582;2023-07-09T15:32:11;24.92;;;5.32;;
73456;SDS011;61691;53.072;6.582;2023-07-09T15:34:38;23.27;;;4.97;;
73456;SDS011;61691;53.072;6.582;2023-07-09T15:37:08;22.05;;;5.40;;
73456;SDS011;61691;53.072;6.582;2023-07-09T15:39:39;25.15;;;6.03;;
73456;SDS011;61691;53.072;6.582;2023-07-09T15:42:10;25.27;;;5.97;;
73456;SDS011;61691;53.072;6.582;2023-07-09T15:44:38;19.20;;;4.78;;
73456;SDS011;61691;53.072;6.582;2023-07-09T15:47:05;15.88;;;3.58;;